sensor_id;sensor_type;location;lat;lon;timestamp;pressure;altitude;pressure_sealevel;temperature;humidity
6413;BME280;3239;48.714;9.472;2023-05-03T00:00:55;99156.47;;;8.68;100.00
6413;BME280;3239;48.714;9.472;2023-05-03T00:03:25;99163.16;;;8.67;100.00
6413;BME280;3239;48.714;9.472;2023-05-03T00:05:51;99163.84;;;8.57;100.00
6413;BME280;3239;48.714;9.472;2023-05-03T00:08:16;99169.03;;;8.55;100.00
6413;BME280;3239;48.714;9.472;2023-05-03T00:10:42;99174.00;;;8.56;100.00
6413;BME280;3239;48.714;9.472;2023-05-03T00:13:08;99182.19;;;8.51;100.00
6413;BME280;3239;48.714;9.472;2023-05-03T00:15:34;99175.72;;;8.54;100.00
6413;BME280;3239;48.714;9.472;2023-05-03T00:17:59;99181.41;;;8.50;100.00
6413;BME280;3239;48.714;9.472;2023-05-03T00:20:25;99181.66;;;8.47;100.00
6413;BME280;3239;48.714;9.472;2023-05-03T00:22:51;99192.97;;;8.34;100.00
6413;BME280;3239;48.714;9.472;2023-05-03T00:25:17;99197.41;;;8.32;100.00
6413;BME280;3239;48.714;9.472;2023-05-03T00:27:43;99195.84;;;8.25;100.00
6413;BME280;3239;48.714;9.472;2023-05-03T00:30:09;99193.63;;;8.24;100.00
6413;BME280;3239;48.714;9.472;2023-05-03T00:32:35;99188.06;;;8.18;100.00
6413;BME280;3239;48.714;9.472;2023-05-03T00:35:01;99197.97;;;8.16;100.00
6413;BME280;3239;48.714;9.472;2023-05-03T00:37:27;99201.72;;;8.18;100.00
6413;BME280;3239;48.714;9.472;2023-05-03T00:39:54;99200.88;;;8.07;100.00
6413;BME280;3239;48.714;9.472;2023-05-03T00:42:20;99192.41;;;8.05;100.00
6413;BME280;3239;48.714;9.472;2023-05-03T00:44:45;99201.16;;;8.09;100.00
6413;BME280;3239;48.714;9.472;2023-05-03T00:47:11;99206.81;;;8.05;100.00
6413;BME280;3239;48.714;9.472;2023-05-03T00:49:37;99206.31;;;8.07;100.00
6413;BME280;3239;48.714;9.472;2023-05-03T00:52:04;99202.78;;;8.01;100.00
6413;BME280;3239;48.714;9.472;2023-05-03T00:54:31;99208.72;;;7.99;100.00
6413;BME280;3239;48.714;9.472;2023-05-03T00:56:59;99211.88;;;7.92;100.00
6413;BME280;3239;48.714;9.472;2023-05-03T00:59:27;99221.63;;;7.99;100.00
6413;BME280;3239;48.714;9.472;2023-05-03T01:01:53;99224.38;;;7.99;100.00
6413;BME280;3239;48.714;9.472;2023-05-03T01:04:20;99232.78;;;7.95;100.00
6413;BME280;3239;48.714;9.472;2023-05-03T01:10:37;99239.19;;;7.72;100.00
6413;BME280;3239;48.714;9.472;2023-05-03T01:18:29;99233.81;;;7.78;100.00
6413;BME280;3239;48.714;9.472;2023-05-03T01:20:59;99231.09;;;7.78;100.00
6413;BME280;3239;48.714;9.472;2023-05-03T01:25:58;99227.28;;;7.50;100.00
6413;BME280;3239;48.714;9.472;2023-05-03T01:28:24;99231.56;;;7.56;100.00
6413;BME280;3239;48.714;9.472;2023-05-03T01:30:51;99224.69;;;7.61;100.00
6413;BME280;3239;48.714;9.472;2023-05-03T01:33:45;99230.06;;;7.55;100.00
6413;BME280;3239;48.714;9.472;2023-05-03T01:36:22;99226.53;;;7.49;100.00
6413;BME280;3239;48.714;9.472;2023-05-03T01:38:51;99229.72;;;7.48;100.00
6413;BME280;3239;48.714;9.472;2023-05-03T01:41:17;99222.84;;;7.52;100.00
6413;BME280;3239;48.714;9.472;2023-05-03T01:43:45;99231.22;;;7.49;100.00
6413;BME280;3239;48.714;9.472;2023-05-03T01:46:11;99232.09;;;7.40;100.00
6413;BME280;3239;48.714;9.472;2023-05-03T01:48:37;99223.41;;;7.36;100.00
6413;BME280;3239;48.714;9.472;2023-05-03T01:51:02;99225.91;;;7.40;100.00
6413;BME280;3239;48.714;9.472;2023-05-03T01:53:28;99222.91;;;7.38;100.00
6413;BME280;3239;48.714;9.472;2023-05-03T01:55:54;99219.66;;;7.34;100.00
6413;BME280;3239;48.714;9.472;2023-05-03T01:58:19;99227.84;;;7.34;100.00
6413;BME280;3239;48.714;9.472;2023-05-03T02:00:46;99215.81;;;7.26;100.00
6413;BME280;3239;48.714;9.472;2023-05-03T02:03:12;99225.97;;;7.25;100.00
6413;BME280;3239;48.714;9.472;2023-05-03T02:05:38;99226.16;;;7.22;100.00
6413;BME280;3239;48.714;9.472;2023-05-03T02:08:03;99219.91;;;7.16;100.00
6413;BME280;3239;48.714;9.472;2023-05-03T02:10:29;99226.56;;;7.15;100.00
6413;BME280;3239;48.714;9.472;2023-05-03T02:12:55;99233.09;;;7.23;100.00
6413;BME280;3239;48.714;9.472;2023-05-03T02:15:20;99233.06;;;7.17;100.00
6413;BME280;3239;48.714;9.472;2023-05-03T02:17:46;99233.25;;;7.14;100.00
6413;BME280;3239;48.714;9.472;2023-05-03T02:20:13;99227.16;;;7.04;100.00
6413;BME280;3239;48.714;9.472;2023-05-03T02:22:39;99222.66;;;7.01;100.00
6413;BME280;3239;48.714;9.472;2023-05-03T02:25:05;99223.13;;;7.00;100.00
6413;BME280;3239;48.714;9.472;2023-05-03T02:27:32;99225.81;;;6.94;100.00
6413;BME280;3239;48.714;9.472;2023-05-03T02:29:57;99225.81;;;6.94;100.00
6413;BME280;3239;48.714;9.472;2023-05-03T02:32:23;99226.34;;;6.98;100.00
6413;BME280;3239;48.714;9.472;2023-05-03T02:34:50;99235.72;;;6.97;100.00
6413;BME280;3239;48.714;9.472;2023-05-03T02:37:16;99230.28;;;6.97;100.00
6413;BME280;3239;48.714;9.472;2023-05-03T02:39:41;99220.06;;;6.92;100.00
6413;BME280;3239;48.714;9.472;2023-05-03T02:42:07;99219.22;;;6.86;100.00
6413;BME280;3239;48.714;9.472;2023-05-03T02:44:34;99223.84;;;6.80;100.00
6413;BME280;3239;48.714;9.472;2023-05-03T02:47:00;99224.31;;;6.79;100.00
6413;BME280;3239;48.714;9.472;2023-05-03T02:49:25;99225.94;;;6.71;100.00
6413;BME280;3239;48.714;9.472;2023-05-03T02:51:51;99231.66;;;6.73;100.00
6413;BME280;3239;48.714;9.472;2023-05-03T02:54:17;99229.97;;;6.75;100.00
6413;BME280;3239;48.714;9.472;2023-05-03T02:56:43;99235.59;;;6.72;100.00
6413;BME280;3239;48.714;9.472;2023-05-03T02:59:09;99239.63;;;6.76;100.00
6413;BME280;3239;48.714;9.472;2023-05-03T03:01:36;99230.72;;;6.76;100.00
6413;BME280;3239;48.714;9.472;2023-05-03T03:04:01;99240.75;;;6.70;100.00
6413;BME280;3239;48.714;9.472;2023-05-03T03:06:27;99239.06;;;6.72;100.00
6413;BME280;3239;48.714;9.472;2023-05-03T03:08:53;99235.41;;;6.75;100.00
6413;BME280;3239;48.714;9.472;2023-05-03T03:11:19;99239.16;;;6.78;100.00
6413;BME280;3239;48.714;9.472;2023-05-03T03:13:45;99245.28;;;6.73;100.00
6413;BME280;3239;48.714;9.472;2023-05-03T03:16:11;99253.28;;;6.62;100.00
6413;BME280;3239;48.714;9.472;2023-05-03T03:18:37;99251.00;;;6.60;100.00
6413;BME280;3239;48.714;9.472;2023-05-03T03:21:03;99259.38;;;6.57;100.00
6413;BME280;3239;48.714;9.472;2023-05-03T03:23:29;99254.69;;;6.57;100.00
6413;BME280;3239;48.714;9.472;2023-05-03T03:25:55;99241.25;;;6.54;100.00
6413;BME280;3239;48.714;9.472;2023-05-03T03:28:21;99246.97;;;6.56;100.00
6413;BME280;3239;48.714;9.472;2023-05-03T03:30:47;99251.47;;;6.59;100.00
6413;BME280;3239;48.714;9.472;2023-05-03T03:33:12;99255.41;;;6.58;100.00
6413;BME280;3239;48.714;9.472;2023-05-03T03:35:38;99259.09;;;6.55;100.00
6413;BME280;3239;48.714;9.472;2023-05-03T03:38:04;99257.78;;;6.50;100.00
6413;BME280;3239;48.714;9.472;2023-05-03T03:40:30;99257.03;;;6.50;100.00
6413;BME280;3239;48.714;9.472;2023-05-03T03:42:57;99257.03;;;6.50;100.00
6413;BME280;3239;48.714;9.472;2023-05-03T03:45:23;99254.59;;;6.37;100.00
6413;BME280;3239;48.714;9.472;2023-05-03T03:47:49;99258.91;;;6.29;100.00
6413;BME280;3239;48.714;9.472;2023-05-03T03:50:14;99269.13;;;6.34;100.00
6413;BME280;3239;48.714;9.472;2023-05-03T03:52:41;99263.41;;;6.32;100.00
6413;BME280;3239;48.714;9.472;2023-05-03T03:55:07;99263.50;;;6.23;100.00
6413;BME280;3239;48.714;9.472;2023-05-03T03:57:32;99267.53;;;6.28;100.00
6413;BME280;3239;48.714;9.472;2023-05-03T03:59:58;99267.06;;;6.29;100.00
6413;BME280;3239;48.714;9.472;2023-05-03T04:02:24;99269.22;;;6.25;100.00
6413;BME280;3239;48.714;9.472;2023-05-03T04:04:50;99277.09;;;6.23;100.00
6413;BME280;3239;48.714;9.472;2023-05-03T04:07:16;99279.53;;;6.21;100.00
6413;BME280;3239;48.714;9.472;2023-05-03T04:09:41;99275.59;;;6.22;100.00
6413;BME280;3239;48.714;9.472;2023-05-03T04:12:08;99271.28;;;6.16;100.00
6413;BME280;3239;48.714;9.472;2023-05-03T04:14:33;99282.44;;;6.18;100.00
6413;BME280;3239;48.714;9.472;2023-05-03T04:16:59;99276.53;;;6.19;100.00
6413;BME280;3239;48.714;9.472;2023-05-03T04:19:25;99281.31;;;6.24;100.00
6413;BME280;3239;48.714;9.472;2023-05-03T04:21:51;99289.97;;;6.23;100.00
6413;BME280;3239;48.714;9.472;2023-05-03T04:24:17;99294.47;;;6.26;100.00
6413;BME280;3239;48.714;9.472;2023-05-03T04:26:43;99290.50;;;6.27;100.00
6413;BME280;3239;48.714;9.472;2023-05-03T04:29:10;99297.44;;;6.28;100.00
6413;BME280;3239;48.714;9.472;2023-05-03T04:31:39;99302.25;;;6.33;100.00
6413;BME280;3239;48.714;9.472;2023-05-03T04:34:04;99303.94;;;6.30;100.00
6413;BME280;3239;48.714;9.472;2023-05-03T04:36:31;99306.00;;;6.21;100.00
6413;BME280;3239;48.714;9.472;2023-05-03T04:38:57;99312.78;;;6.25;100.00
6413;BME280;3239;48.714;9.472;2023-05-03T04:41:23;99315.31;;;6.29;100.00
6413;BME280;3239;48.714;9.472;2023-05-03T04:43:49;99321.00;;;6.16;100.00
6413;BME280;3239;48.714;9.472;2023-05-03T04:46:16;99314.06;;;6.15;100.00
6413;BME280;3239;48.714;9.472;2023-05-03T04:48:44;99327.56;;;6.24;100.00
6413;BME280;3239;48.714;9.472;2023-05-03T04:51:10;99330.47;;;6.21;100.00
6413;BME280;3239;48.714;9.472;2023-05-03T04:53:35;99327.97;;;6.32;100.00
6413;BME280;3239;48.714;9.472;2023-05-03T04:56:01;99322.25;;;6.44;100.00
6413;BME280;3239;48.714;9.472;2023-05-03T04:58:27;99326.97;;;6.44;100.00
6413;BME280;3239;48.714;9.472;2023-05-03T05:00:53;99324.34;;;6.49;100.00
6413;BME280;3239;48.714;9.472;2023-05-03T05:03:18;99323.03;;;6.59;100.00
6413;BME280;3239;48.714;9.472;2023-05-03T05:05:44;99325.09;;;6.64;100.00
6413;BME280;3239;48.714;9.472;2023-05-03T05:08:10;99324.25;;;6.73;100.00
6413;BME280;3239;48.714;9.472;2023-05-03T05:10:39;99325.94;;;6.85;100.00
6413;BME280;3239;48.714;9.472;2023-05-03T05:13:06;99307.69;;;6.91;100.00
6413;BME280;3239;48.714;9.472;2023-05-03T05:15:32;99315.78;;;7.00;100.00
6413;BME280;3239;48.714;9.472;2023-05-03T05:17:57;99316.34;;;7.04;100.00
6413;BME280;3239;48.714;9.472;2023-05-03T05:20:24;99320.75;;;7.01;100.00
6413;BME280;3239;48.714;9.472;2023-05-03T05:22:49;99315.31;;;6.87;100.00
6413;BME280;3239;48.714;9.472;2023-05-03T05:25:15;99321.88;;;6.95;100.00
6413;BME280;3239;48.714;9.472;2023-05-03T05:27:41;99327.97;;;7.19;100.00
6413;BME280;3239;48.714;9.472;2023-05-03T05:30:07;99331.88;;;7.32;100.00
6413;BME280;3239;48.714;9.472;2023-05-03T05:32:33;99329.22;;;7.38;100.00
6413;BME280;3239;48.714;9.472;2023-05-03T05:34:59;99334.47;;;7.41;100.00
6413;BME280;3239;48.714;9.472;2023-05-03T05:37:25;99334.56;;;7.47;100.00
6413;BME280;3239;48.714;9.472;2023-05-03T05:39:52;99344.53;;;7.70;100.00
6413;BME280;3239;48.714;9.472;2023-05-03T05:42:18;99344.16;;;7.77;100.00
6413;BME280;3239;48.714;9.472;2023-05-03T05:44:44;99335.00;;;7.60;100.00
6413;BME280;3239;48.714;9.472;2023-05-03T05:47:10;99344.91;;;7.77;100.00
6413;BME280;3239;48.714;9.472;2023-05-03T05:49:35;99340.94;;;7.78;100.00
6413;BME280;3239;48.714;9.472;2023-05-03T05:52:01;99349.09;;;7.93;100.00
6413;BME280;3239;48.714;9.472;2023-05-03T05:54:27;99350.50;;;7.88;100.00
6413;BME280;3239;48.714;9.472;2023-05-03T05:56:53;99347.84;;;7.94;100.00
6413;BME280;3239;48.714;9.472;2023-05-03T05:59:19;99345.81;;;8.29;100.00
6413;BME280;3239;48.714;9.472;2023-05-03T06:01:44;99335.69;;;8.15;100.00
6413;BME280;3239;48.714;9.472;2023-05-03T06:04:12;99331.19;;;8.12;100.00
6413;BME280;3239;48.714;9.472;2023-05-03T06:06:38;99332.66;;;8.27;100.00
6413;BME280;3239;48.714;9.472;2023-05-03T06:09:04;99334.03;;;8.43;100.00
6413;BME280;3239;48.714;9.472;2023-05-03T06:11:30;99323.16;;;8.74;100.00
6413;BME280;3239;48.714;9.472;2023-05-03T06:13:56;99315.59;;;8.89;100.00
6413;BME280;3239;48.714;9.472;2023-05-03T06:16:23;99328.59;;;9.30;100.00
6413;BME280;3239;48.714;9.472;2023-05-03T06:18:49;99308.41;;;9.70;100.00
6413;BME280;3239;48.714;9.472;2023-05-03T06:21:15;99298.16;;;10.07;100.00
6413;BME280;3239;48.714;9.472;2023-05-03T06:23:41;99288.53;;;10.33;100.00
6413;BME280;3239;48.714;9.472;2023-05-03T06:26:07;99274.63;;;10.53;100.00
6413;BME280;3239;48.714;9.472;2023-05-03T06:28:33;99239.22;;;10.44;100.00
6413;BME280;3239;48.714;9.472;2023-05-03T06:30:59;99216.28;;;11.02;100.00
6413;BME280;3239;48.714;9.472;2023-05-03T06:33:25;99194.34;;;10.91;100.00
6413;BME280;3239;48.714;9.472;2023-05-03T06:35:51;99191.72;;;11.43;100.00
6413;BME280;3239;48.714;9.472;2023-05-03T06:38:17;99167.06;;;11.89;100.00
6413;BME280;3239;48.714;9.472;2023-05-03T06:40:45;99140.88;;;11.88;100.00
6413;BME280;3239;48.714;9.472;2023-05-03T06:43:11;99142.16;;;12.46;100.00
6413;BME280;3239;48.714;9.472;2023-05-03T06:45:38;99113.88;;;12.51;100.00
6413;BME280;3239;48.714;9.472;2023-05-03T06:48:04;99111.69;;;12.92;100.00
6413;BME280;3239;48.714;9.472;2023-05-03T06:50:31;99087.97;;;13.13;100.00
6413;BME280;3239;48.714;9.472;2023-05-03T06:52:56;99076.38;;;13.57;100.00
6413;BME280;3239;48.714;9.472;2023-05-03T06:55:22;99060.53;;;13.63;100.00
6413;BME280;3239;48.714;9.472;2023-05-03T06:57:48;99055.91;;;13.52;100.00
6413;BME280;3239;48.714;9.472;2023-05-03T07:00:14;99061.88;;;13.19;100.00
6413;BME280;3239;48.714;9.472;2023-05-03T07:02:41;99052.06;;;13.42;100.00
6413;BME280;3239;48.714;9.472;2023-05-03T07:05:07;99052.47;;;13.65;100.00
6413;BME280;3239;48.714;9.472;2023-05-03T07:07:33;99057.38;;;14.03;100.00
6413;BME280;3239;48.714;9.472;2023-05-03T07:09:59;99045.59;;;13.90;100.00
6413;BME280;3239;48.714;9.472;2023-05-03T07:12:24;99051.75;;;14.40;100.00
6413;BME280;3239;48.714;9.472;2023-05-03T07:14:56;99045.59;;;14.47;100.00
6413;BME280;3239;48.714;9.472;2023-05-03T07:17:22;99032.34;;;14.72;100.00
6413;BME280;3239;48.714;9.472;2023-05-03T07:19:49;99025.97;;;15.49;100.00
6413;BME280;3239;48.714;9.472;2023-05-03T07:22:16;99017.81;;;15.44;100.00
6413;BME280;3239;48.714;9.472;2023-05-03T07:24:42;99005.00;;;15.33;100.00
6413;BME280;3239;48.714;9.472;2023-05-03T07:27:08;99004.25;;;15.33;100.00
6413;BME280;3239;48.714;9.472;2023-05-03T07:29:33;98999.09;;;15.50;100.00
6413;BME280;3239;48.714;9.472;2023-05-03T07:31:59;98994.69;;;14.87;100.00
6413;BME280;3239;48.714;9.472;2023-05-03T07:34:25;98999.50;;;15.74;100.00
6413;BME280;3239;48.714;9.472;2023-05-03T07:36:51;98984.75;;;15.72;100.00
6413;BME280;3239;48.714;9.472;2023-05-03T07:39:17;98988.44;;;15.33;100.00
6413;BME280;3239;48.714;9.472;2023-05-03T07:41:44;98983.22;;;14.83;100.00
6413;BME280;3239;48.714;9.472;2023-05-03T07:44:10;98982.00;;;14.45;100.00
6413;BME280;3239;48.714;9.472;2023-05-03T07:46:35;98990.69;;;15.09;100.00
6413;BME280;3239;48.714;9.472;2023-05-03T07:49:04;98995.34;;;15.27;100.00
6413;BME280;3239;48.714;9.472;2023-05-03T07:51:37;98980.34;;;15.35;100.00
6413;BME280;3239;48.714;9.472;2023-05-03T07:54:04;98981.63;;;15.21;100.00
6413;BME280;3239;48.714;9.472;2023-05-03T07:56:30;98980.00;;;15.39;100.00
6413;BME280;3239;48.714;9.472;2023-05-03T07:58:56;98975.44;;;15.41;100.00
6413;BME280;3239;48.714;9.472;2023-05-03T08:01:22;98980.66;;;14.98;100.00
6413;BME280;3239;48.714;9.472;2023-05-03T08:03:49;98984.47;;;16.03;100.00
6413;BME280;3239;48.714;9.472;2023-05-03T08:06:18;98973.97;;;15.61;100.00
6413;BME280;3239;48.714;9.472;2023-05-03T08:08:44;98967.69;;;16.57;100.00
6413;BME280;3239;48.714;9.472;2023-05-03T08:11:10;98961.22;;;16.27;100.00
6413;BME280;3239;48.714;9.472;2023-05-03T08:13:36;98960.50;;;16.62;100.00
6413;BME280;3239;48.714;9.472;2023-05-03T08:16:03;98962.91;;;17.01;100.00
6413;BME280;3239;48.714;9.472;2023-05-03T08:18:29;98962.69;;;16.99;100.00
6413;BME280;3239;48.714;9.472;2023-05-03T08:20:55;98959.78;;;16.05;100.00
6413;BME280;3239;48.714;9.472;2023-05-03T08:23:22;98965.13;;;15.83;100.00
6413;BME280;3239;48.714;9.472;2023-05-03T08:25:47;98967.56;;;16.70;100.00
6413;BME280;3239;48.714;9.472;2023-05-03T08:28:13;98970.50;;;16.65;100.00
6413;BME280;3239;48.714;9.472;2023-05-03T08:30:39;98979.44;;;16.43;100.00
6413;BME280;3239;48.714;9.472;2023-05-03T08:33:06;98967.97;;;16.74;100.00
6413;BME280;3239;48.714;9.472;2023-05-03T08:35:35;98959.72;;;16.89;100.00
6413;BME280;3239;48.714;9.472;2023-05-03T08:38:00;98957.91;;;17.95;100.00
6413;BME280;3239;48.714;9.472;2023-05-03T08:40:27;98961.38;;;16.85;100.00
6413;BME280;3239;48.714;9.472;2023-05-03T08:42:55;98975.56;;;16.46;100.00
6413;BME280;3239;48.714;9.472;2023-05-03T08:45:24;98961.13;;;17.18;100.00
6413;BME280;3239;48.714;9.472;2023-05-03T08:47:54;98962.25;;;16.72;100.00
6413;BME280;3239;48.714;9.472;2023-05-03T08:50:20;98966.09;;;17.20;100.00
6413;BME280;3239;48.714;9.472;2023-05-03T08:52:47;98964.00;;;17.71;100.00
6413;BME280;3239;48.714;9.472;2023-05-03T08:55:13;98964.16;;;17.43;100.00
6413;BME280;3239;48.714;9.472;2023-05-03T08:57:39;98972.69;;;17.60;100.00
6413;BME280;3239;48.714;9.472;2023-05-03T09:00:06;98964.34;;;16.51;100.00
6413;BME280;3239;48.714;9.472;2023-05-03T09:02:36;98966.63;;;17.03;100.00
6413;BME280;3239;48.714;9.472;2023-05-03T09:08:09;98965.38;;;17.19;100.00
6413;BME280;3239;48.714;9.472;2023-05-03T09:10:40;98967.47;;;17.41;100.00
6413;BME280;3239;48.714;9.472;2023-05-03T09:13:08;98977.78;;;16.83;100.00
6413;BME280;3239;48.714;9.472;2023-05-03T09:15:34;98973.22;;;17.51;100.00
6413;BME280;3239;48.714;9.472;2023-05-03T09:18:18;98967.84;;;17.45;100.00
6413;BME280;3239;48.714;9.472;2023-05-03T09:20:46;98964.75;;;17.79;100.00
6413;BME280;3239;48.714;9.472;2023-05-03T09:23:30;98968.44;;;17.81;100.00
6413;BME280;3239;48.714;9.472;2023-05-03T09:25:57;98965.47;;;18.17;100.00
6413;BME280;3239;48.714;9.472;2023-05-03T09:28:23;98968.22;;;17.64;100.00
6413;BME280;3239;48.714;9.472;2023-05-03T09:31:04;98960.09;;;18.04;100.00
6413;BME280;3239;48.714;9.472;2023-05-03T09:33:32;98954.47;;;18.71;100.00
6413;BME280;3239;48.714;9.472;2023-05-03T09:36:00;98960.84;;;18.89;100.00
6413;BME280;3239;48.714;9.472;2023-05-03T09:38:29;98952.78;;;19.72;100.00
6413;BME280;3239;48.714;9.472;2023-05-03T09:40:55;98953.19;;;18.65;100.00
6413;BME280;3239;48.714;9.472;2023-05-03T09:43:22;98950.38;;;19.12;100.00
6413;BME280;3239;48.714;9.472;2023-05-03T09:45:48;98945.75;;;19.46;100.00
6413;BME280;3239;48.714;9.472;2023-05-03T09:48:15;98941.81;;;19.17;100.00
6413;BME280;3239;48.714;9.472;2023-05-03T09:50:42;98943.94;;;19.41;100.00
6413;BME280;3239;48.714;9.472;2023-05-03T09:53:08;98940.13;;;18.13;100.00
6413;BME280;3239;48.714;9.472;2023-05-03T09:55:39;98939.50;;;18.59;100.00
6413;BME280;3239;48.714;9.472;2023-05-03T09:58:06;98935.56;;;19.49;100.00
6413;BME280;3239;48.714;9.472;2023-05-03T10:00:40;98935.75;;;19.11;100.00
6413;BME280;3239;48.714;9.472;2023-05-03T10:03:12;98929.53;;;20.26;100.00
6413;BME280;3239;48.714;9.472;2023-05-03T10:05:47;98931.47;;;19.74;100.00
6413;BME280;3239;48.714;9.472;2023-05-03T10:08:33;98933.34;;;19.72;100.00
6413;BME280;3239;48.714;9.472;2023-05-03T10:11:03;98924.84;;;19.70;100.00
6413;BME280;3239;48.714;9.472;2023-05-03T10:13:29;98924.22;;;19.22;100.00
6413;BME280;3239;48.714;9.472;2023-05-03T10:16:02;98931.66;;;19.12;100.00
6413;BME280;3239;48.714;9.472;2023-05-03T10:18:31;98927.19;;;18.15;100.00
6413;BME280;3239;48.714;9.472;2023-05-03T10:21:11;98926.50;;;20.14;100.00
6413;BME280;3239;48.714;9.472;2023-05-03T10:24:14;98912.50;;;19.80;100.00
6413;BME280;3239;48.714;9.472;2023-05-03T10:26:45;98917.56;;;19.50;100.00
6413;BME280;3239;48.714;9.472;2023-05-03T10:32:27;98908.06;;;20.70;100.00
6413;BME280;3239;48.714;9.472;2023-05-03T10:35:11;98910.22;;;20.28;100.00
6413;BME280;3239;48.714;9.472;2023-05-03T10:37:40;98909.06;;;20.14;100.00
6413;BME280;3239;48.714;9.472;2023-05-03T10:40:16;98902.75;;;20.13;100.00
6413;BME280;3239;48.714;9.472;2023-05-03T10:42:53;98907.81;;;19.41;100.00
6413;BME280;3239;48.714;9.472;2023-05-03T10:50:38;98900.19;;;20.76;100.00
6413;BME280;3239;48.714;9.472;2023-05-03T10:53:04;98889.34;;;20.53;100.00
6413;BME280;3239;48.714;9.472;2023-05-03T10:55:31;98898.94;;;20.43;100.00
6413;BME280;3239;48.714;9.472;2023-05-03T10:57:58;98891.22;;;20.51;100.00
6413;BME280;3239;48.714;9.472;2023-05-03T11:04:17;98891.97;;;20.34;100.00
6413;BME280;3239;48.714;9.472;2023-05-03T11:06:36;98883.94;;;19.06;100.00
6413;BME280;3239;48.714;9.472;2023-05-03T11:09:08;98882.28;;;19.35;100.00
6413;BME280;3239;48.714;9.472;2023-05-03T11:11:37;98884.78;;;19.16;100.00
6413;BME280;3239;48.714;9.472;2023-05-03T11:14:04;98882.63;;;19.64;100.00
6413;BME280;3239;48.714;9.472;2023-05-03T11:16:30;98886.69;;;19.63;100.00
6413;BME280;3239;48.714;9.472;2023-05-03T11:18:56;98872.81;;;20.21;100.00
6413;BME280;3239;48.714;9.472;2023-05-03T11:21:23;98879.63;;;19.13;100.00
6413;BME280;3239;48.714;9.472;2023-05-03T11:23:49;98877.75;;;19.23;100.00
6413;BME280;3239;48.714;9.472;2023-05-03T11:26:15;98868.38;;;19.11;100.00
6413;BME280;3239;48.714;9.472;2023-05-03T11:28:42;98865.78;;;18.73;100.00
6413;BME280;3239;48.714;9.472;2023-05-03T11:31:09;98856.94;;;18.99;100.00
6413;BME280;3239;48.714;9.472;2023-05-03T11:33:37;98861.28;;;19.42;100.00
6413;BME280;3239;48.714;9.472;2023-05-03T11:36:05;98857.34;;;19.28;100.00
6413;BME280;3239;48.714;9.472;2023-05-03T11:38:33;98851.22;;;19.71;100.00
6413;BME280;3239;48.714;9.472;2023-05-03T11:41:00;98853.63;;;19.91;100.00
6413;BME280;3239;48.714;9.472;2023-05-03T11:43:40;98841.63;;;19.47;100.00
6413;BME280;3239;48.714;9.472;2023-05-03T11:46:07;98844.84;;;19.78;100.00
6413;BME280;3239;48.714;9.472;2023-05-03T11:48:33;98847.88;;;19.72;100.00
6413;BME280;3239;48.714;9.472;2023-05-03T11:51:05;98846.78;;;19.51;100.00
6413;BME280;3239;48.714;9.472;2023-05-03T11:53:32;98842.09;;;19.04;100.00
6413;BME280;3239;48.714;9.472;2023-05-03T11:55:59;98837.06;;;19.59;100.00
6413;BME280;3239;48.714;9.472;2023-05-03T11:58:26;98836.47;;;19.44;100.00
6413;BME280;3239;48.714;9.472;2023-05-03T12:00:54;98847.06;;;19.38;100.00
6413;BME280;3239;48.714;9.472;2023-05-03T12:03:25;98830.59;;;20.15;100.00
6413;BME280;3239;48.714;9.472;2023-05-03T12:05:52;98840.81;;;19.96;100.00
6413;BME280;3239;48.714;9.472;2023-05-03T12:08:26;98826.16;;;20.12;100.00
6413;BME280;3239;48.714;9.472;2023-05-03T12:10:53;98823.50;;;19.80;100.00
6413;BME280;3239;48.714;9.472;2023-05-03T12:13:34;98822.59;;;19.78;100.00
6413;BME280;3239;48.714;9.472;2023-05-03T12:16:01;98823.78;;;19.92;100.00
6413;BME280;3239;48.714;9.472;2023-05-03T12:21:22;98803.91;;;20.12;91.30
6413;BME280;3239;48.714;9.472;2023-05-03T12:23:49;98807.59;;;20.58;97.37
6413;BME280;3239;48.714;9.472;2023-05-03T12:26:20;98804.97;;;20.87;97.96
6413;BME280;3239;48.714;9.472;2023-05-03T12:28:49;98799.03;;;20.73;96.25
6413;BME280;3239;48.714;9.472;2023-05-03T12:31:15;98801.59;;;20.62;92.55
6413;BME280;3239;48.714;9.472;2023-05-03T12:33:44;98798.25;;;20.20;94.56
6413;BME280;3239;48.714;9.472;2023-05-03T12:36:10;98799.38;;;19.66;98.65
6413;BME280;3239;48.714;9.472;2023-05-03T12:38:36;98794.06;;;19.94;94.64
6413;BME280;3239;48.714;9.472;2023-05-03T12:41:02;98790.75;;;20.13;86.97
6413;BME280;3239;48.714;9.472;2023-05-03T12:43:28;98786.53;;;20.38;90.75
6413;BME280;3239;48.714;9.472;2023-05-03T12:45:53;98787.59;;;20.26;92.34
6413;BME280;3239;48.714;9.472;2023-05-03T12:48:19;98801.59;;;19.50;94.57
6413;BME280;3239;48.714;9.472;2023-05-03T12:50:49;98792.28;;;19.72;97.00
6413;BME280;3239;48.714;9.472;2023-05-03T12:53:14;98797.75;;;19.97;96.08
6413;BME280;3239;48.714;9.472;2023-05-03T12:55:41;98788.97;;;20.34;93.34
6413;BME280;3239;48.714;9.472;2023-05-03T12:58:08;98780.94;;;20.12;93.09
6413;BME280;3239;48.714;9.472;2023-05-03T13:00:33;98789.75;;;21.24;97.03
6413;BME280;3239;48.714;9.472;2023-05-03T13:02:59;98778.72;;;21.90;85.48
6413;BME280;3239;48.714;9.472;2023-05-03T13:05:25;98779.00;;;22.13;80.18
6413;BME280;3239;48.714;9.472;2023-05-03T13:07:51;98781.47;;;21.52;63.30
6413;BME280;3239;48.714;9.472;2023-05-03T13:10:17;98778.25;;;21.10;69.17
6413;BME280;3239;48.714;9.472;2023-05-03T13:12:43;98772.06;;;20.66;75.43
6413;BME280;3239;48.714;9.472;2023-05-03T13:15:09;98767.50;;;20.44;82.32
6413;BME280;3239;48.714;9.472;2023-05-03T13:17:36;98769.97;;;20.67;75.37
6413;BME280;3239;48.714;9.472;2023-05-03T13:20:02;98766.34;;;20.74;86.46
6413;BME280;3239;48.714;9.472;2023-05-03T13:22:31;98756.91;;;20.33;88.42
6413;BME280;3239;48.714;9.472;2023-05-03T13:24:57;98750.34;;;20.38;82.43
6413;BME280;3239;48.714;9.472;2023-05-03T13:27:24;98744.25;;;20.49;82.02
6413;BME280;3239;48.714;9.472;2023-05-03T13:29:49;98746.50;;;20.60;74.61
6413;BME280;3239;48.714;9.472;2023-05-03T13:32:15;98741.41;;;20.66;90.10
6413;BME280;3239;48.714;9.472;2023-05-03T13:34:41;98744.63;;;20.99;83.19
6413;BME280;3239;48.714;9.472;2023-05-03T13:37:07;98741.00;;;20.43;78.86
6413;BME280;3239;48.714;9.472;2023-05-03T13:39:33;98742.88;;;20.67;80.55
6413;BME280;3239;48.714;9.472;2023-05-03T13:41:59;98746.91;;;21.19;80.73
6413;BME280;3239;48.714;9.472;2023-05-03T13:44:24;98746.56;;;21.06;79.53
6413;BME280;3239;48.714;9.472;2023-05-03T13:46:50;98738.81;;;21.14;79.88